Sterling, AK

1:19 AM AKDT on July 27, 2017 (GMT -0800)
King Salmon Avenue | | Change Station

Elev 208 ft 60.51 °N, 150.80 °W | Updated 7 minutes ago

Overcast
Overcast
54.9 °F
Feels Like 54.9 °F
N
1.2
Wind Variable Wind from SW
Gusts 2.5 mph

Today
High -- | Low -- °F
--% Chance of Precip.
Yesterday
High -- | Low -- °F
Precip. -- in
Pressure 29.94 in
Visibility 10.0 miles
Clouds Overcast 300 ft
Dew Point 54 °F
Humidity 95%
Rainfall Not available.
Snow Depth Not available.
5:29 AM 10:48 PM
Waxing Crescent, 19% visible
METAR PASX 270856Z AUTO 26003KT 10SM OVC003 12/12 A2991 RMK AO2 SLP138 60002 T01220117 52013 $
Pressure 29.94 in
Visibility 10.0 miles
Clouds Overcast 300 ft
Dew Point 54 °F
Humidity 95%
Rainfall Not available.
Snow Depth Not available.
5:29 AM 10:48 PM
Waxing Crescent, 19% visible
METAR PASX 270856Z AUTO 26003KT 10SM OVC003 12/12 A2991 RMK AO2 SLP138 60002 T01220117 52013 $

Get Severe Weather Alerts

Thanks for signing up!

Be on the lookout for a verification email in your inbox.

You'll start receiving the daily forecast at 6 AM.

×

10-Day Weather Forecast

Almanac

Astronomy

Jul. 27, 2017 Rise Set
Actual Time
Civil Twilight
Nautical Twilight
Astronomical Twilight
Moon
Length of Visible Light
Length of Day
Tomorrow will be .
, % of the Moon is Illuminated

Today's Extremes

State Highs State Lows

Community

WunderPhotos

Category 6

Welcome to Category 6. This is the collective home for Weather Underground's featured writeups by Dr. Jeff Masters (right), Bob Henson (left), Chris Burt, and other regular contributors.

Nearby

Air Quality

  Air Quality AQ Index Pollutant
Not available.

Snow Depth

Station Depth Elevation

Earthquake Activity

City Distance Mag. Time & Date
Minimum magnitude displayed is 2.5.

Coastal Water Temperatures

Place Temperature

Stations

Nearby Weather Stations

Station Location Temp. Windchill Dew Point Humidity Wind Precip. Elev Updated Type
                   

Watches & Warnings

There are currently no watches in effect.